Time;durP1;ratioP1;P1;durP2;ratioP2;P2;SDS_P1;SDS_P2;PMS_P1;PMS_P2;Temp;Humidity;BMP_temperature;BMP_pressure;BME280_temperature;BME280_humidity;BME280_pressure;Samples;Min_cycle;Max_cycle;Signal;HPM_P1;HPM_P2
2021/01/15 00:00:05;;;;;;;16.93;9.80;;;;;;;1.15;81.20;101013.59;5051091;28;20124;-71
2021/01/15 00:02:30;;;;;;;14.70;9.60;;;;;;;1.21;80.74;101015.56;5051532;28;20776;-71
2021/01/15 00:04:56;;;;;;;17.40;10.63;;;;;;;1.19;80.89;101014.63;5051816;28;20104;-72
2021/01/15 00:07:21;;;;;;;17.13;10.00;;;;;;;1.24;80.60;101013.97;5051523;28;20495;-71
2021/01/15 00:09:46;;;;;;;15.57;8.97;;;;;;;1.26;80.83;101017.53;5051699;28;20036;-71
2021/01/15 00:12:13;;;;;;;15.60;9.40;;;;;;;1.26;80.97;101020.13;5051338;28;20106;-71
2021/01/15 00:14:38;;;;;;;13.37;9.50;;;;;;;1.18;80.56;101025.81;5051635;28;20060;-71
2021/01/15 00:17:03;;;;;;;15.63;9.93;;;;;;;1.24;81.15;101018.28;5051490;28;20045;-71
2021/01/15 00:19:29;;;;;;;13.63;9.47;;;;;;;1.35;80.84;101023.91;5051410;28;20094;-71
2021/01/15 00:21:54;;;;;;;14.67;9.63;;;;;;;1.37;80.41;101030.06;5050068;28;20037;-71
2021/01/15 00:24:20;;;;;;;15.30;9.27;;;;;;;1.32;80.54;101022.06;5049886;28;20051;-71
2021/01/15 00:26:47;;;;;;;15.87;10.30;;;;;;;1.39;79.89;101030.97;5051412;28;20041;-71
2021/01/15 00:29:16;;;;;;;15.93;9.90;;;;;;;1.37;79.69;101033.53;5051236;28;20525;-71
2021/01/15 00:31:46;;;;;;;14.27;9.77;;;;;;;1.40;80.10;101032.78;5051338;28;20069;-71
2021/01/15 00:34:13;;;;;;;13.90;8.77;;;;;;;1.41;80.34;101029.34;5051059;28;20039;-72
2021/01/15 00:36:40;;;;;;;15.30;10.40;;;;;;;1.48;80.26;101042.63;5051112;28;20056;-71
2021/01/15 00:39:08;;;;;;;13.80;9.00;;;;;;;1.58;80.09;101036.09;5051071;28;20041;-70
2021/01/15 00:41:37;;;;;;;13.53;8.60;;;;;;;1.61;79.66;101041.41;5051213;28;20559;-71
2021/01/15 00:44:04;;;;;;;15.40;9.67;;;;;;;1.66;79.61;101039.84;5051003;28;20468;-71
2021/01/15 00:46:33;;;;;;;15.67;10.07;;;;;;;1.72;79.07;101045.28;5050058;28;20039;-72
2021/01/15 00:49:06;;;;;;;14.27;10.00;;;;;;;1.75;79.15;101045.41;5058078;28;20036;-71
2021/01/15 00:51:33;;;;;;;13.17;9.00;;;;;;;1.80;79.01;101047.28;5049910;28;20418;-71
2021/01/15 00:53:59;;;;;;;13.37;9.07;;;;;;;1.78;79.05;101049.81;5050862;28;20025;-71
2021/01/15 00:56:25;;;;;;;16.23;10.40;;;;;;;1.74;79.03;101054.03;5049641;28;20091;-71
2021/01/15 00:58:51;;;;;;;15.32;9.55;;;;;;;1.70;78.68;101056.47;5047462;28;20039;-71
2021/01/15 01:01:24;;;;;;;14.73;9.97;;;;;;;1.69;78.74;101055.59;5058199;28;20102;-71
2021/01/15 01:03:52;;;;;;;12.93;8.47;;;;;;;1.70;78.65;101062.56;5049816;28;20029;-71
2021/01/15 01:06:20;;;;;;;19.75;11.15;;;;;;;1.62;78.98;101063.09;5049715;28;20121;-72
2021/01/15 01:08:46;;;;;;;15.13;9.07;;;;;;;1.62;79.07;101066.56;5050868;28;20045;-71
2021/01/15 01:11:21;;;;;;;15.23;10.00;;;;;;;1.69;78.97;101062.50;5054050;28;20154;-71
2021/01/15 01:13:48;;;;;;;16.93;11.03;;;;;;;1.75;78.82;101068.81;5054828;28;20044;-71
2021/01/15 01:16:18;;;;;;;13.77;9.77;;;;;;;1.77;78.65;101065.41;5054770;28;20108;-72
2021/01/15 01:18:45;;;;;;;15.17;9.80;;;;;;;1.80;78.35;101068.13;5054956;28;20106;-71
2021/01/15 01:21:11;;;;;;;15.95;10.25;;;;;;;1.77;78.83;101068.88;5054782;28;20033;-71
2021/01/15 01:23:38;;;;;;;15.65;9.95;;;;;;;1.79;78.84;101068.97;5040867;28;20116;-72
2021/01/15 01:26:03;;;;;;;13.38;9.25;;;;;;;1.79;78.87;101069.84;5047598;28;20064;-71
2021/01/15 01:28:29;;;;;;;14.25;9.32;;;;;;;1.80;78.79;101068.13;5054587;28;20119;-71
2021/01/15 01:30:54;;;;;;;16.05;10.80;;;;;;;1.85;78.85;101067.47;5054708;28;20037;-71
2021/01/15 01:33:19;;;;;;;15.90;11.65;;;;;;;1.90;78.75;101075.44;5054270;28;20037;-72
2021/01/15 01:35:45;;;;;;;14.45;10.43;;;;;;;1.88;78.61;101064.97;5054516;28;20040;-73
2021/01/15 01:38:10;;;;;;;16.33;11.73;;;;;;;1.85;78.71;101062.25;5054349;28;20033;-72
2021/01/15 01:40:36;;;;;;;16.90;11.48;;;;;;;1.83;78.58;101063.91;5054328;28;20432;-71
2021/01/15 01:43:01;;;;;;;15.85;10.63;;;;;;;1.81;78.83;101065.59;5054164;28;20051;-72
2021/01/15 01:45:27;;;;;;;16.60;11.67;;;;;;;1.77;78.57;101068.88;5054436;28;20441;-72
2021/01/15 01:47:57;;;;;;;15.40;10.27;;;;;;;1.67;78.73;101059.84;5054185;28;20041;-71
2021/01/15 01:50:23;;;;;;;17.85;10.25;;;;;;;1.64;79.18;101064.94;5054327;28;20048;-72
2021/01/15 01:52:49;;;;;;;17.30;11.10;;;;;;;1.63;79.45;101064.88;5053998;28;20414;-71
2021/01/15 01:55:14;;;;;;;16.45;10.20;;;;;;;1.66;79.60;101062.41;5053937;28;20041;-72
2021/01/15 01:57:40;;;;;;;15.40;10.52;;;;;;;1.59;79.43;101069.06;5054116;28;20102;-72
2021/01/15 02:00:07;;;;;;;14.70;10.30;;;;;;;1.62;79.56;101063.97;5053977;28;20575;-72
2021/01/15 02:02:37;;;;;;;15.30;10.63;;;;;;;1.52;80.14;101067.06;5053887;28;20569;-71
2021/01/15 02:05:03;;;;;;;16.53;11.20;;;;;;;1.53;80.32;101058.44;5054237;28;20037;-71
2021/01/15 02:07:29;;;;;;;15.97;11.27;;;;;;;1.54;79.92;101065.41;5053970;28;20029;-71
2021/01/15 02:10:24;;;;;;;17.20;11.13;;;;;;;1.50;79.87;101064.41;5053799;28;20510;-70
2021/01/15 02:12:58;;;;;;;15.30;10.33;;;;;;;1.47;79.97;101060.81;5032694;28;20057;-71
2021/01/15 02:15:44;;;;;;;15.63;10.25;;;;;;;1.43;80.26;101053.69;5053784;28;20419;-71
2021/01/15 02:18:20;;;;;;;14.95;10.88;;;;;;;1.45;80.11;101054.66;5053467;28;20033;-72
2021/01/15 02:21:23;;;;;;;14.40;10.23;;;;;;;1.40;80.37;101056.19;5053817;28;20069;-71
2021/01/15 02:23:49;;;;;;;15.43;10.13;;;;;;;1.40;80.42;101050.97;5048490;28;20167;-71
2021/01/15 02:26:45;;;;;;;15.10;9.87;;;;;;;1.40;80.75;101056.19;5053630;28;20033;-72
2021/01/15 02:29:15;;;;;;;17.00;10.63;;;;;;;1.34;80.84;101051.63;5053429;28;20044;-72
2021/01/15 02:31:46;;;;;;;15.67;10.23;;;;;;;1.33;81.04;101052.44;5053847;28;20039;-71
2021/01/15 02:34:52;;;;;;;16.03;11.07;;;;;;;1.37;80.81;101053.47;5060182;28;20045;-72
2021/01/15 02:37:37;;;;;;;16.33;10.53;;;;;;;1.31;81.19;101055.00;5053362;28;20044;-71
2021/01/15 02:40:20;;;;;;;16.53;10.37;;;;;;;1.34;81.56;101066.31;5053329;28;20123;-71
2021/01/15 02:42:48;;;;;;;15.67;11.20;;;;;;;1.42;80.83;101059.75;5053188;28;20100;-72
2021/01/15 02:45:14;;;;;;;14.40;10.10;;;;;;;1.44;80.94;101055.47;5053173;28;20032;-71
2021/01/15 02:47:54;;;;;;;15.27;10.37;;;;;;;1.36;81.22;101064.69;5053052;28;20499;-72
2021/01/15 02:50:25;;;;;;;17.43;10.23;;;;;;;1.31;81.36;101056.72;5053219;28;20045;-71
2021/01/15 02:52:51;;;;;;;16.00;10.23;;;;;;;1.33;81.60;101060.25;5052946;28;20037;-71
2021/01/15 02:55:17;;;;;;;16.13;10.47;;;;;;;1.30;81.57;101055.81;5053023;28;20083;-72
2021/01/15 02:57:43;;;;;;;17.70;10.77;;;;;;;1.23;81.67;101060.69;5052940;28;20406;-71
2021/01/15 03:00:12;;;;;;;15.50;10.10;;;;;;;1.24;81.75;101058.16;5052808;28;20037;-71
2021/01/15 03:02:59;;;;;;;15.33;10.10;;;;;;;1.24;81.45;101070.28;5050380;28;20491;-71
2021/01/15 03:05:57;;;;;;;16.47;10.43;;;;;;;1.28;81.85;101057.47;5052837;28;20056;-72
2021/01/15 03:08:25;;;;;;;16.73;11.23;;;;;;;1.25;81.56;101057.34;5052717;28;20041;-72
2021/01/15 03:10:51;;;;;;;14.37;9.93;;;;;;;1.20;81.89;101061.47;5052767;28;20036;-71
2021/01/15 03:13:18;;;;;;;16.40;9.50;;;;;;;1.23;81.90;101059.00;5052459;28;20091;-71
2021/01/15 03:15:45;;;;;;;16.20;10.33;;;;;;;1.25;81.73;101059.94;5052640;28;20069;-71
2021/01/15 03:18:13;;;;;;;14.53;10.40;;;;;;;1.33;81.95;101060.25;5052781;28;20061;-71
2021/01/15 03:20:39;;;;;;;14.73;9.80;;;;;;;1.33;81.74;101060.25;5052532;28;20037;-72
2021/01/15 03:23:04;;;;;;;17.10;9.60;;;;;;;1.36;81.90;101067.28;5052321;28;20045;-72
2021/01/15 03:25:29;;;;;;;16.60;10.90;;;;;;;1.38;81.28;101065.63;5052621;28;20033;-71
2021/01/15 03:27:56;;;;;;;16.83;10.70;;;;;;;1.42;81.62;101064.94;5052277;28;20522;-71
2021/01/15 03:30:24;;;;;;;14.87;10.23;;;;;;;1.45;80.78;101070.25;5052320;28;20029;-72
2021/01/15 03:32:52;;;;;;;16.37;10.00;;;;;;;1.41;81.28;101070.94;5051624;28;20040;-71
2021/01/15 03:35:25;;;;;;;15.23;10.23;;;;;;;1.38;81.61;101076.03;5051577;28;20029;-71
2021/01/15 03:37:56;;;;;;;16.20;10.20;;;;;;;1.34;81.43;101072.44;5052141;28;20040;-71
2021/01/15 03:40:21;;;;;;;13.63;9.35;;;;;;;1.33;81.49;101064.56;5052136;28;20049;-70
2021/01/15 03:42:47;;;;;;;15.95;9.60;;;;;;;1.33;81.71;101072.34;5051947;28;20128;-71
2021/01/15 03:45:13;;;;;;;14.03;8.60;;;;;;;1.34;81.80;101066.31;5052344;28;20102;-71
2021/01/15 03:47:39;;;;;;;14.20;9.70;;;;;;;1.38;81.23;101076.03;5051742;28;20041;-71
2021/01/15 03:50:05;;;;;;;13.50;9.63;;;;;;;1.36;81.75;101069.88;5050736;28;20039;-71
2021/01/15 03:52:30;;;;;;;15.43;9.80;;;;;;;1.35;81.45;101065.50;5051566;28;20114;-71
2021/01/15 03:54:56;;;;;;;14.67;10.20;;;;;;;1.30;81.63;101071.41;5051767;28;20083;-70
2021/01/15 03:57:21;;;;;;;15.17;9.30;;;;;;;1.29;81.14;101072.25;5050164;28;20064;-72
2021/01/15 03:59:46;;;;;;;14.33;8.70;;;;;;;1.28;81.59;101075.69;5051797;28;20126;-71
2021/01/15 04:02:12;;;;;;;13.40;8.23;;;;;;;1.28;80.88;101078.28;5051251;28;20099;-70
2021/01/15 04:04:37;;;;;;;15.57;9.37;;;;;;;1.25;81.34;101070.34;5051646;28;20064;-71
2021/01/15 04:07:02;;;;;;;15.87;9.23;;;;;;;1.33;81.22;101069.75;5051607;28;20495;-71
2021/01/15 04:09:27;;;;;;;15.63;10.50;;;;;;;1.30;81.51;101078.31;5051394;28;20526;-72
2021/01/15 04:11:53;;;;;;;14.03;9.07;;;;;;;1.34;81.59;101077.63;5051617;28;20565;-71
2021/01/15 04:14:18;;;;;;;15.70;9.20;;;;;;;1.36;81.25;101075.06;5051338;28;20075;-71
2021/01/15 04:16:43;;;;;;;14.77;8.60;;;;;;;1.31;81.56;101077.53;5058475;28;20064;-72
2021/01/15 04:19:09;;;;;;;14.50;9.30;;;;;;;1.28;81.36;101074.78;5051407;28;20122;-71
2021/01/15 04:21:34;;;;;;;15.87;9.83;;;;;;;1.25;81.58;101072.94;5051489;28;20068;-71
2021/01/15 04:23:59;;;;;;;12.97;8.10;;;;;;;1.21;81.03;101070.19;5051206;28;20052;-72
2021/01/15 04:26:25;;;;;;;14.70;9.20;;;;;;;1.21;81.47;101071.06;5043120;28;20033;-71
2021/01/15 04:28:50;;;;;;;16.00;10.30;;;;;;;1.25;81.06;101075.53;5051337;28;20033;-72
2021/01/15 04:31:19;;;;;;;14.23;8.30;;;;;;;1.25;81.62;101078.13;5051293;28;20033;-71
2021/01/15 04:33:45;;;;;;;13.00;8.20;;;;;;;1.23;81.34;101069.41;5058205;28;20040;-71
2021/01/15 04:36:11;;;;;;;13.93;9.80;;;;;;;1.26;81.74;101077.31;5051308;28;20412;-71
2021/01/15 04:38:40;;;;;;;15.53;9.20;;;;;;;1.34;81.21;101066.31;5047553;28;20112;-72
2021/01/15 04:41:06;;;;;;;14.90;8.93;;;;;;;1.35;81.21;101070.72;5049025;28;20511;-72
2021/01/15 04:43:34;;;;;;;12.50;7.90;;;;;;;1.35;80.80;101078.50;5050953;28;20064;-71
2021/01/15 04:46:04;;;;;;;14.90;8.63;;;;;;;1.30;80.95;101086.13;5050668;28;20487;-72
2021/01/15 04:48:33;;;;;;;13.20;8.33;;;;;;;1.28;81.01;101085.16;5047915;28;20203;-71
2021/01/15 04:50:59;;;;;;;13.23;9.03;;;;;;;1.22;81.67;101082.34;5051031;28;20047;-72
2021/01/15 04:53:27;;;;;;;13.93;7.77;;;;;;;1.27;80.68;101086.00;5050874;28;20036;-72
2021/01/15 04:55:57;;;;;;;14.87;8.17;;;;;;;1.21;81.07;101089.25;5051024;28;20127;-73
2021/01/15 04:58:24;;;;;;;14.60;8.90;;;;;;;1.21;81.22;101089.25;5047226;28;20373;-72
2021/01/15 05:00:56;;;;;;;11.37;7.70;;;;;;;1.20;81.58;101090.06;5051022;28;20048;-72
2021/01/15 05:03:24;;;;;;;14.00;8.38;;;;;;;1.15;81.62;101088.97;5047951;28;20491;-71
2021/01/15 05:05:58;;;;;;;13.00;8.77;;;;;;;1.14;81.38;101089.81;5051298;28;20525;-72
2021/01/15 05:08:28;;;;;;;13.67;8.03;;;;;;;1.11;81.53;101087.09;5033201;28;20482;-72
2021/01/15 05:10:54;;;;;;;12.90;7.57;;;;;;;1.13;81.51;101094.94;5050883;28;20483;-72
2021/01/15 05:13:20;;;;;;;12.93;7.93;;;;;;;1.17;81.33;101100.34;5050678;28;20442;-71
2021/01/15 05:15:48;;;;;;;14.07;8.27;;;;;;;1.08;81.30;101099.97;5050740;28;20037;-72
2021/01/15 05:18:15;;;;;;;10.77;7.23;;;;;;;1.11;81.82;101102.69;5050809;28;20424;-74
2021/01/15 05:20:40;;;;;;;12.27;7.10;;;;;;;1.11;80.91;101107.91;5051143;28;20045;-69
2021/01/15 05:23:07;;;;;;;13.03;6.87;;;;;;;1.02;82.07;101103.22;5050639;28;20475;-69
2021/01/15 05:25:42;;;;;;;12.30;7.47;;;;;;;1.05;81.62;101105.06;5050684;28;20029;-68
2021/01/15 05:28:07;;;;;;;12.90;7.83;;;;;;;1.05;81.15;101105.06;5050654;28;20079;-69
2021/01/15 05:30:34;;;;;;;13.70;8.40;;;;;;;1.05;81.32;101107.66;5050731;28;20060;-68
2021/01/15 05:33:00;;;;;;;12.00;7.27;;;;;;;1.07;82.04;101103.38;5050533;28;20045;-69
2021/01/15 05:35:42;;;;;;;12.37;7.47;;;;;;;1.04;81.44;101111.06;5042396;28;20041;-68
2021/01/15 05:38:10;;;;;;;;;;;;;;;1.02;80.97;101121.41;5050973;28;20395;-69
2021/01/15 05:40:37;;;;;;;14.73;7.80;;;;;;;1.02;81.42;101117.91;5050670;28;19962;-68
2021/01/15 05:43:03;;;;;;;13.20;7.93;;;;;;;1.00;81.59;101116.97;5050338;28;20037;-69
2021/01/15 05:45:29;;;;;;;13.40;7.20;;;;;;;1.07;81.73;101121.59;5050585;28;20025;-68
2021/01/15 05:47:54;;;;;;;14.20;8.23;;;;;;;1.04;81.70;101114.53;5049787;28;20099;-69
2021/01/15 05:50:20;;;;;;;13.33;7.50;;;;;;;1.09;81.74;101117.34;5049485;28;20131;-68
2021/01/15 05:52:55;;;;;;;11.37;7.07;;;;;;;1.08;81.36;101128.56;5049488;28;20052;-69
2021/01/15 05:55:25;;;;;;;14.67;7.50;;;;;;;1.10;81.09;101124.31;5050324;28;20033;-69
2021/01/15 05:57:51;;;;;;;11.97;7.80;;;;;;;1.05;80.96;101123.25;5048006;28;20044;-69
2021/01/15 06:00:42;;;;;;;10.97;6.57;;;;;;;1.05;81.51;101131.94;5049313;28;20040;-69
2021/01/15 06:03:08;;;;;;;16.93;7.90;;;;;;;1.07;81.35;101130.28;5051026;28;20057;-69
2021/01/15 06:05:34;;;;;;;10.70;6.40;;;;;;;1.09;80.79;101126.03;5052822;28;20051;-68
2021/01/15 06:08:01;;;;;;;15.03;7.80;;;;;;;1.16;80.90;101132.38;5052287;28;20052;-69
2021/01/15 06:10:27;;;;;;;14.63;7.57;;;;;;;1.18;81.14;101135.94;5045755;28;20053;-68
2021/01/15 06:12:53;;;;;;;14.33;8.10;;;;;;;1.17;81.01;101143.66;5052944;28;20095;-68
2021/01/15 06:15:19;;;;;;;10.67;6.93;;;;;;;1.16;80.64;101145.38;5053534;28;20037;-69
2021/01/15 06:17:52;;;;;;;12.47;8.10;;;;;;;1.15;80.47;101147.91;5053826;28;20441;-69
2021/01/15 06:20:19;;;;;;;12.23;7.33;;;;;;;1.15;80.99;101153.09;5053771;28;20039;-69
2021/01/15 06:22:49;;;;;;;12.17;6.80;;;;;;;1.17;80.92;101147.13;5053309;28;20036;-69
2021/01/15 06:25:32;;;;;;;12.20;6.93;;;;;;;1.18;80.43;101154.13;5053645;28;20029;-69
2021/01/15 06:28:02;;;;;;;13.13;7.90;;;;;;;1.10;80.56;101155.50;5051376;28;20037;-69
2021/01/15 06:30:30;;;;;;;15.30;8.20;;;;;;;1.13;80.81;101165.13;5046434;28;20491;-69
2021/01/15 06:33:07;;;;;;;11.97;7.77;;;;;;;1.13;80.71;101165.13;5051986;28;20063;-69
2021/01/15 06:35:38;;;;;;;14.00;7.10;;;;;;;1.17;80.38;101161.84;5047039;28;20509;-69
2021/01/15 06:38:14;;;;;;;12.67;6.70;;;;;;;1.18;80.01;101167.13;5053195;28;20033;-69
2021/01/15 06:40:48;;;;;;;12.07;6.47;;;;;;;1.18;80.48;101169.75;5053233;28;20094;-69
2021/01/15 06:43:31;;;;;;;10.30;6.23;;;;;;;1.16;80.65;101175.69;5052650;28;20041;-69
2021/01/15 06:46:01;;;;;;;15.17;7.43;;;;;;;1.09;80.63;101171.94;5053241;28;20033;-69
2021/01/15 06:48:37;;;;;;;12.70;6.30;;;;;;;1.17;80.17;101178.34;5045024;28;20035;-69
2021/01/15 06:51:04;;;;;;;11.50;7.17;;;;;;;1.09;80.58;101179.72;5053076;28;20036;-69
2021/01/15 06:53:31;;;;;;;10.93;6.30;;;;;;;1.10;80.20;101186.69;5052815;28;20032;-68
2021/01/15 06:56:01;;;;;;;15.80;7.90;;;;;;;1.07;80.51;101191.78;5044358;28;20122;-69
2021/01/15 06:58:28;;;;;;;12.40;7.40;;;;;;;0.99;81.21;101190.56;5044801;28;20041;-69
2021/01/15 07:01:08;;;;;;;11.73;6.50;;;;;;;1.11;80.59;101193.69;5052976;28;20499;-67
2021/01/15 07:04:04;;;;;;;10.53;6.13;;;;;;;1.06;80.91;101190.00;5045011;28;20045;-68
2021/01/15 07:06:31;;;;;;;11.67;6.33;;;;;;;1.05;81.14;101196.91;5044771;28;20036;-68
2021/01/15 07:09:01;;;;;;;13.43;7.17;;;;;;;1.08;80.45;101203.97;5052067;28;20037;-69
2021/01/15 07:11:28;;;;;;;13.40;7.13;;;;;;;1.11;80.83;101206.69;5044657;28;20024;-69
2021/01/15 07:13:57;;;;;;;12.03;6.27;;;;;;;1.10;80.74;101207.50;5052379;28;20507;-68
2021/01/15 07:16:30;;;;;;;10.27;7.00;;;;;;;1.11;80.40;101214.50;5050256;28;20040;-69
2021/01/15 07:19:04;;;;;;;11.30;6.70;;;;;;;1.09;80.82;101205.72;5042319;28;20033;-69
2021/01/15 07:21:34;;;;;;;11.27;6.23;;;;;;;1.09;80.56;101211.81;5045581;28;20528;-69
2021/01/15 07:24:03;;;;;;;11.67;6.97;;;;;;;1.10;80.77;101220.50;5052090;28;20584;-69
2021/01/15 07:26:39;;;;;;;12.93;7.53;;;;;;;1.12;80.53;101226.66;5044509;28;20170;-68
2021/01/15 07:29:05;;;;;;;12.33;7.63;;;;;;;1.14;80.75;101226.72;5052134;28;20033;-68
2021/01/15 07:31:30;;;;;;;11.60;7.57;;;;;;;1.12;80.77;101231.84;5052151;28;20044;-69
2021/01/15 07:33:58;;;;;;;13.47;8.00;;;;;;;1.15;80.09;101234.56;5036245;28;20163;-69
2021/01/15 07:36:37;;;;;;;14.20;7.93;;;;;;;1.12;80.68;101239.66;5043579;28;20044;-69
2021/01/15 07:39:24;;;;;;;12.87;8.13;;;;;;;1.03;80.89;101239.28;5034430;28;20033;-69
2021/01/15 07:41:53;;;;;;;19.93;10.77;;;;;;;1.07;80.93;101235.97;5046699;28;20039;-69
2021/01/15 07:44:22;;;;;;;19.60;11.07;;;;;;;1.02;81.05;101234.88;5051728;28;20029;-68
2021/01/15 07:46:54;;;;;;;15.13;7.77;;;;;;;1.04;80.78;101241.91;5051816;28;20040;-68
2021/01/15 07:49:21;;;;;;;15.53;9.67;;;;;;;1.02;80.99;101241.00;5051547;28;20040;-69
2021/01/15 07:52:05;;;;;;;13.13;8.00;;;;;;;1.13;80.88;101246.66;5051681;28;20448;-69
2021/01/15 07:54:46;;;;;;;19.37;9.33;;;;;;;1.11;80.66;101244.81;5044399;28;20041;-68
2021/01/15 07:57:13;;;;;;;15.37;8.43;;;;;;;1.15;79.93;101239.78;5051761;28;20033;-69
2021/01/15 07:59:38;;;;;;;13.73;8.43;;;;;;;1.14;80.62;101248.41;5051731;28;20124;-69
2021/01/15 08:02:03;;;;;;;15.77;8.97;;;;;;;1.12;80.32;101244.84;5051502;28;20132;-69
2021/01/15 08:04:29;;;;;;;16.77;9.10;;;;;;;1.12;80.56;101241.38;5051595;28;20036;-69
2021/01/15 08:07:01;;;;;;;13.87;9.43;;;;;;;1.10;80.08;101254.28;5051631;28;20029;-69
2021/01/15 08:09:26;;;;;;;15.02;8.75;;;;;;;1.07;80.08;101251.56;5043259;28;20337;-69
2021/01/15 08:11:58;;;;;;;15.77;8.87;;;;;;;1.07;79.86;101260.28;5050408;28;20040;-69
2021/01/15 08:14:23;;;;;;;13.53;8.13;;;;;;;1.08;80.26;101258.56;5050497;28;20060;-69
2021/01/15 08:16:49;;;;;;;15.13;9.57;;;;;;;1.03;80.46;101262.66;5050085;28;20029;-68
2021/01/15 08:19:20;;;;;;;16.83;7.23;;;;;;;1.03;80.13;101260.06;5048011;28;20045;-69
2021/01/15 08:21:47;;;;;;;12.77;8.00;;;;;;;1.07;80.66;101264.56;5039015;28;20037;-68
2021/01/15 08:24:22;;;;;;;13.70;7.10;;;;;;;1.07;80.00;101265.47;5040564;28;20037;-69
2021/01/15 08:26:51;;;;;;;18.17;7.90;;;;;;;1.07;80.24;101261.97;5046798;28;20190;-69
2021/01/15 08:29:23;;;;;;;13.53;8.43;;;;;;;0.98;79.95;101264.16;5051195;28;20068;-69
2021/01/15 08:31:50;;;;;;;15.93;8.82;;;;;;;1.04;80.50;101264.44;5051248;28;20093;-69
2021/01/15 08:34:21;;;;;;;12.93;7.20;;;;;;;1.05;80.26;101268.81;5050932;28;20410;-69
2021/01/15 08:36:49;;;;;;;13.43;7.90;;;;;;;1.05;80.67;101267.09;5051111;28;20028;-68
2021/01/15 08:39:15;;;;;;;14.40;8.70;;;;;;;1.11;80.44;101266.47;5048497;28;20128;-69
2021/01/15 08:41:41;;;;;;;17.53;9.30;;;;;;;1.11;80.19;101268.19;5051168;28;20056;-69
2021/01/15 08:44:07;;;;;;;14.37;8.30;;;;;;;1.07;80.01;101264.56;5050882;28;20041;-69
2021/01/15 08:46:33;;;;;;;14.77;8.63;;;;;;;1.14;80.13;101274.41;5050070;28;20040;-68
2021/01/15 08:48:59;;;;;;;15.67;9.53;;;;;;;1.03;80.48;101279.16;5051013;28;20040;-68
2021/01/15 08:51:28;;;;;;;15.00;8.50;;;;;;;1.01;80.58;101274.69;5050907;28;20043;-68
2021/01/15 08:54:09;;;;;;;15.10;9.40;;;;;;;0.90;81.25;101275.94;5050338;28;20040;-68
2021/01/15 08:56:37;;;;;;;16.47;9.03;;;;;;;0.80;81.65;101280.72;5043987;28;20087;-69
2021/01/15 08:59:07;;;;;;;14.90;8.77;;;;;;;0.74;82.15;101285.63;5051052;28;20372;-69
2021/01/15 09:01:35;;;;;;;16.43;9.50;;;;;;;0.70;82.88;101278.50;5050950;28;20037;-68
2021/01/15 09:04:11;;;;;;;15.30;9.30;;;;;;;0.76;82.83;101281.41;5050734;28;20521;-69
2021/01/15 09:06:38;;;;;;;16.00;8.97;;;;;;;0.86;82.37;101280.09;5047979;28;20442;-69
2021/01/15 09:09:11;;;;;;;15.63;9.53;;;;;;;0.81;82.49;101287.69;5050645;28;20037;-68
2021/01/15 09:11:39;;;;;;;15.93;9.30;;;;;;;0.83;81.47;101291.22;5050767;28;20043;-69
2021/01/15 09:14:12;;;;;;;14.40;9.17;;;;;;;0.80;80.84;101287.63;5050555;28;20372;-68
2021/01/15 09:16:38;;;;;;;13.75;8.02;;;;;;;0.77;80.53;101296.16;5050707;28;20406;-69
2021/01/15 09:19:06;;;;;;;16.67;7.93;;;;;;;0.74;81.09;101295.16;5050627;28;20120;-68
2021/01/15 09:21:31;;;;;;;13.23;7.10;;;;;;;0.77;80.70;101296.16;5050841;28;20503;-68
2021/01/15 09:23:56;;;;;;;12.67;7.43;;;;;;;0.77;79.80;101301.38;5050331;28;20040;-69
2021/01/15 09:26:22;;;;;;;11.30;6.80;;;;;;;0.81;79.23;101304.97;5050239;28;20061;-68
2021/01/15 09:28:47;;;;;;;11.33;6.73;;;;;;;0.77;79.16;101301.38;5049596;28;20037;-68
2021/01/15 09:31:13;;;;;;;10.97;6.53;;;;;;;0.74;79.67;101306.44;5051744;28;20037;-69
2021/01/15 09:33:46;;;;;;;11.70;6.93;;;;;;;0.73;79.29;101315.00;5054055;28;20091;-68
2021/01/15 09:36:42;;;;;;;10.13;6.10;;;;;;;0.72;79.34;101313.25;5053028;28;20048;-68
2021/01/15 09:39:08;;;;;;;10.20;6.70;;;;;;;0.75;79.86;101309.91;5038686;28;20059;-68
2021/01/15 09:41:33;;;;;;;11.67;6.87;;;;;;;0.77;80.01;101311.75;5054381;28;20037;-69
2021/01/15 09:43:59;;;;;;;12.97;7.87;;;;;;;0.80;80.26;101311.88;5054100;28;20043;-68
2021/01/15 09:46:26;;;;;;;13.53;7.57;;;;;;;0.94;79.93;101322.91;5053957;28;20033;-69
2021/01/15 09:48:54;;;;;;;12.20;7.10;;;;;;;0.87;79.44;101319.16;5054050;28;20403;-69
2021/01/15 09:51:21;;;;;;;14.43;7.13;;;;;;;0.87;79.57;101320.88;5051561;28;20038;-68
2021/01/15 09:53:47;;;;;;;14.00;8.10;;;;;;;0.84;78.86;101310.34;5048849;28;20094;-67
2021/01/15 09:56:34;;;;;;;11.67;7.80;;;;;;;0.82;78.98;101320.66;5052802;28;20446;-69
2021/01/15 09:59:01;;;;;;;11.53;7.40;;;;;;;0.88;78.58;101318.31;5052716;28;20037;-68
2021/01/15 10:01:27;;;;;;;11.50;7.60;;;;;;;0.91;79.25;101316.69;5045615;28;20071;-69
2021/01/15 10:03:53;;;;;;;11.93;7.67;;;;;;;1.00;78.33;101323.19;5053353;28;20115;-69
2021/01/15 10:06:19;;;;;;;12.37;6.90;;;;;;;0.91;77.92;101327.09;5053821;28;20028;-68
2021/01/15 10:08:46;;;;;;;14.17;8.73;;;;;;;0.91;78.87;101321.88;5053857;28;20052;-68
2021/01/15 10:11:22;;;;;;;13.53;9.03;;;;;;;0.91;78.20;101321.88;5053826;28;20037;-68
2021/01/15 10:13:48;;;;;;;18.13;10.10;;;;;;;0.93;79.22;101321.13;5053633;28;20051;-68
2021/01/15 10:16:13;;;;;;;14.10;8.77;;;;;;;1.00;78.87;101319.72;5053203;28;20032;-68
2021/01/15 10:18:39;;;;;;;14.43;8.17;;;;;;;0.98;78.17;101316.16;5053399;28;20071;-68
2021/01/15 10:21:04;;;;;;;13.27;8.17;;;;;;;0.94;78.24;101327.22;5053683;28;20488;-69
2021/01/15 10:23:30;;;;;;;12.70;8.57;;;;;;;0.94;78.40;101319.41;5053356;28;20452;-69
2021/01/15 10:25:55;;;;;;;14.53;8.13;;;;;;;0.85;78.56;101320.78;5053664;28;20025;-67
2021/01/15 10:28:21;;;;;;;14.57;8.30;;;;;;;0.85;78.27;101320.78;5053412;28;20479;-68
2021/01/15 10:30:49;;;;;;;12.83;7.57;;;;;;;0.88;77.58;101314.84;5053519;28;20575;-69
2021/01/15 10:33:14;;;;;;;11.60;7.10;;;;;;;0.82;78.43;101318.06;5052798;28;20041;-68
2021/01/15 10:35:40;;;;;;;12.80;7.77;;;;;;;0.90;77.96;101320.13;5053335;28;20090;-67
2021/01/15 10:38:05;;;;;;;11.33;7.07;;;;;;;0.93;77.84;101322.84;5053247;28;20041;-69
2021/01/15 10:40:31;;;;;;;12.47;7.30;;;;;;;0.95;76.68;101316.03;5053355;28;20454;-68
2021/01/15 10:42:56;;;;;;;13.37;7.37;;;;;;;0.97;76.27;101322.16;5052234;28;20563;-68
2021/01/15 10:45:22;;;;;;;11.57;7.67;;;;;;;0.95;76.55;101313.44;5053079;28;20029;-68
2021/01/15 10:47:47;;;;;;;12.87;7.37;;;;;;;1.00;76.12;101317.13;5052006;28;20140;-68
2021/01/15 10:50:14;;;;;;;13.73;7.53;;;;;;;0.98;76.47;101318.75;5052218;28;20048;-68
2021/01/15 10:52:39;;;;;;;10.50;7.17;;;;;;;0.99;76.68;101320.53;5052610;28;20029;-68
2021/01/15 10:55:05;;;;;;;11.37;6.97;;;;;;;1.00;75.08;101320.59;5052925;28;20056;-68
2021/01/15 10:57:31;;;;;;;11.27;7.07;;;;;;;0.99;76.33;101324.00;5053056;28;20043;-68
2021/01/15 10:59:56;;;;;;;9.60;6.23;;;;;;;1.05;75.13;101315.63;5052880;28;20039;-68
2021/01/15 11:02:21;;;;;;;10.63;6.63;;;;;;;1.04;75.54;101325.09;5052731;28;20137;-69
2021/01/15 11:04:47;;;;;;;12.63;6.57;;;;;;;1.11;74.40;101313.28;5039585;28;20120;-68
2021/01/15 11:07:12;;;;;;;10.00;6.80;;;;;;;1.06;74.82;101315.66;5043813;28;20053;-69
2021/01/15 11:09:37;;;;;;;11.07;7.60;;;;;;;1.08;75.03;101313.16;5054254;28;20574;-69
2021/01/15 11:12:04;;;;;;;12.93;8.07;;;;;;;1.08;74.99;101318.34;5054452;28;20396;-67
2021/01/15 11:14:29;;;;;;;12.47;7.73;;;;;;;1.16;74.74;101321.28;5056078;28;20076;-68
2021/01/15 11:16:55;;;;;;;13.90;7.67;;;;;;;1.08;74.69;101321.84;5051264;28;20122;-68
2021/01/15 11:19:20;;;;;;;12.90;7.63;;;;;;;1.01;74.88;101324.97;5051008;28;20491;-69
2021/01/15 11:21:47;;;;;;;12.50;7.83;;;;;;;0.96;74.91;101329.06;5048187;28;20458;-70
2021/01/15 11:24:12;;;;;;;11.97;7.00;;;;;;;0.95;74.12;101326.41;5048786;28;20036;-69
2021/01/15 11:26:38;;;;;;;11.50;7.23;;;;;;;0.91;74.07;101325.38;5051681;28;20491;-69
2021/01/15 11:29:06;;;;;;;11.97;7.00;;;;;;;0.87;74.55;101324.34;5051403;28;20072;-68
2021/01/15 11:31:32;;;;;;;13.47;7.80;;;;;;;0.79;74.31;101336.09;5051464;28;20095;-66